Time;durP1;ratioP1;P1;durP2;ratioP2;P2;SDS_P1;SDS_P2;PMS_P1;PMS_P2;Temp;Humidity;BMP_temperature;BMP_pressure;BME280_temperature;BME280_humidity;BME280_pressure;Samples;Min_cycle;Max_cycle;Signal;HPM_P1;HPM_P2
2023/06/30 00:02:05;;;;;;;8.98;1.20;;;16.20;99.90;;;;;;5056034;28;20025;-90
2023/06/30 00:04:32;;;;;;;2.35;0.80;;;16.20;99.90;;;;;;5055306;28;20485;-88
2023/06/30 00:06:59;;;;;;;1.65;0.77;;;16.20;99.90;;;;;;5063924;28;20047;-90
2023/06/30 00:09:24;;;;;;;4.15;1.20;;;16.20;99.90;;;;;;5077913;28;20048;-89
2023/06/30 00:11:54;;;;;;;1.92;0.60;;;16.20;99.90;;;;;;5074874;28;20025;-89
2023/06/30 00:14:21;;;;;;;3.47;1.02;;;16.20;99.90;;;;;;5058115;28;20108;-90
2023/06/30 00:16:47;;;;;;;4.18;1.25;;;16.20;99.90;;;;;;5056780;28;20040;-89
2023/06/30 00:19:13;;;;;;;3.97;1.02;;;16.10;99.90;;;;;;5061914;28;20100;-90
2023/06/30 00:21:42;;;;;;;4.28;0.98;;;16.10;99.90;;;;;;5055191;28;20059;-88
2023/06/30 00:24:14;;;;;;;5.63;1.08;;;16.10;99.90;;;;;;5054116;28;20074;-89
2023/06/30 00:26:40;;;;;;;1.90;0.82;;;16.10;99.90;;;;;;5053717;28;20040;-90
2023/06/30 00:29:06;;;;;;;6.65;1.15;;;16.10;99.90;;;;;;5054048;28;20116;-89
2023/06/30 00:31:32;;;;;;;3.63;0.95;;;16.10;99.90;;;;;;5055018;28;20082;-90
2023/06/30 00:33:58;;;;;;;3.38;1.00;;;16.10;99.90;;;;;;5054642;28;20100;-89
2023/06/30 00:36:24;;;;;;;3.08;0.98;;;16.10;99.90;;;;;;5053953;28;20504;-89
2023/06/30 00:38:51;;;;;;;5.30;1.35;;;16.10;99.90;;;;;;5053573;28;20087;-90
2023/06/30 00:41:23;;;;;;;2.72;0.98;;;16.10;99.90;;;;;;5053600;28;20021;-88
2023/06/30 00:43:49;;;;;;;1.83;1.17;;;16.00;99.90;;;;;;5053982;28;20044;-90
2023/06/30 00:46:17;;;;;;;4.47;1.95;;;16.00;99.90;;;;;;5053313;28;20037;-89
2023/06/30 00:48:43;;;;;;;2.22;1.10;;;16.00;99.90;;;;;;5054431;28;20029;-89
2023/06/30 00:51:10;;;;;;;3.75;0.93;;;16.00;99.90;;;;;;5054549;28;20469;-89
2023/06/30 00:53:36;;;;;;;2.45;1.23;;;16.00;99.90;;;;;;5052471;28;20036;-89
2023/06/30 00:56:02;;;;;;;3.50;0.93;;;16.00;99.90;;;;;;5052695;28;20037;-89
2023/06/30 00:58:28;;;;;;;2.25;1.05;;;16.00;99.90;;;;;;5053229;28;20041;-90
2023/06/30 01:01:01;;;;;;;5.72;1.08;;;16.00;99.90;;;;;;5053287;28;20064;-90
2023/06/30 01:03:44;;;;;;;2.20;1.00;;;16.00;99.90;;;;;;5053307;28;20035;-88
2023/06/30 01:06:15;;;;;;;1.95;0.80;;;16.00;99.90;;;;;;5053053;28;20056;-89
2023/06/30 01:08:49;;;;;;;6.85;1.20;;;16.00;99.90;;;;;;5053086;28;20036;-89
2023/06/30 01:11:16;;;;;;;4.68;1.50;;;16.00;99.90;;;;;;5053217;28;20029;-90
2023/06/30 01:13:43;;;;;;;3.83;1.52;;;16.00;99.90;;;;;;5053009;28;20047;-89
2023/06/30 01:16:11;;;;;;;4.35;1.25;;;15.90;99.90;;;;;;5052216;28;20033;-89
2023/06/30 01:18:42;;;;;;;3.10;1.20;;;15.90;99.90;;;;;;5052942;28;20017;-89
2023/06/30 01:21:13;;;;;;;3.05;1.15;;;15.90;99.90;;;;;;5052938;28;20832;-89
2023/06/30 01:23:45;;;;;;;2.15;1.10;;;15.80;99.90;;;;;;5053099;28;20649;-89
2023/06/30 01:26:11;;;;;;;3.38;1.52;;;15.80;99.90;;;;;;5052284;28;20509;-89
2023/06/30 01:28:37;;;;;;;3.67;0.90;;;15.70;99.90;;;;;;5051622;28;20033;-89
2023/06/30 01:31:08;;;;;;;6.50;0.90;;;15.70;99.90;;;;;;5052668;28;20028;-90
2023/06/30 01:33:36;;;;;;;6.47;1.33;;;15.70;99.90;;;;;;5052716;28;20029;-90
2023/06/30 01:36:02;;;;;;;4.72;1.20;;;15.80;99.90;;;;;;5052755;28;20397;-89
2023/06/30 01:38:30;;;;;;;1.73;1.02;;;15.70;99.90;;;;;;5052672;28;20033;-90
2023/06/30 01:40:56;;;;;;;2.78;1.05;;;15.70;99.90;;;;;;5052612;28;20477;-89
2023/06/30 01:43:23;;;;;;;5.10;1.33;;;15.70;99.90;;;;;;5052604;28;20825;-89
2023/06/30 01:45:49;;;;;;;4.65;0.95;;;15.70;99.90;;;;;;5051351;28;20091;-89
2023/06/30 01:48:16;;;;;;;4.75;1.10;;;15.70;99.90;;;;;;5050395;28;20067;-89
2023/06/30 01:50:43;;;;;;;7.13;1.63;;;15.60;99.90;;;;;;5052258;28;20025;-90
2023/06/30 01:53:09;;;;;;;3.45;1.42;;;15.60;99.90;;;;;;5053322;28;20036;-89
2023/06/30 01:55:35;;;;;;;2.58;1.20;;;15.60;99.90;;;;;;5073092;28;20057;-89
2023/06/30 01:58:01;;;;;;;3.25;1.00;;;15.60;99.90;;;;;;5059265;28;20547;-89
2023/06/30 02:00:26;;;;;;;4.50;1.10;;;15.50;99.90;;;;;;5052433;28;20024;-89
2023/06/30 02:02:52;;;;;;;2.05;1.30;;;15.60;99.90;;;;;;5052307;28;20043;-88
2023/06/30 02:05:18;;;;;;;5.05;1.55;;;15.50;99.90;;;;;;5052275;28;20053;-89
2023/06/30 02:07:43;;;;;;;2.53;1.30;;;15.60;99.90;;;;;;5053073;28;20076;-89
2023/06/30 02:10:09;;;;;;;;;;;15.50;99.90;;;;;;5052265;28;20023;-90
2023/06/30 02:12:35;;;;;;;2.92;1.30;;;15.50;99.90;;;;;;5054459;28;20264;-89
2023/06/30 02:15:01;;;;;;;2.85;1.38;;;15.40;99.90;;;;;;5057546;28;20032;-90
2023/06/30 02:17:27;;;;;;;;;;;15.40;99.90;;;;;;5053318;28;20028;-89
2023/06/30 02:19:53;;;;;;;4.07;1.15;;;15.40;99.90;;;;;;5051792;28;20373;-88
2023/06/30 02:22:18;;;;;;;3.03;1.13;;;15.40;99.90;;;;;;5053077;28;20036;-89
2023/06/30 02:24:44;;;;;;;3.30;1.52;;;15.40;99.90;;;;;;5051703;28;20029;-90
2023/06/30 02:27:09;;;;;;;;;;;15.40;99.90;;;;;;5054342;28;20037;-89
2023/06/30 02:29:35;;;;;;;4.30;1.33;;;15.40;99.90;;;;;;5053401;28;19935;-90
2023/06/30 02:32:01;;;;;;;4.28;1.83;;;15.30;99.90;;;;;;5051689;28;20028;-90
2023/06/30 02:34:26;;;;;;;;;;;15.30;99.90;;;;;;5053435;28;20036;-89
2023/06/30 02:36:52;;;;;;;4.78;1.63;;;15.30;99.90;;;;;;5052046;28;19940;-91
2023/06/30 02:39:18;;;;;;;9.70;2.15;;;15.30;99.90;;;;;;5052963;28;20053;-90
2023/06/30 02:41:44;;;;;;;1.92;1.40;;;15.30;99.90;;;;;;5052883;28;20525;-90
2023/06/30 02:44:09;;;;;;;2.38;1.60;;;15.30;99.90;;;;;;5052822;28;20027;-90
2023/06/30 02:46:35;;;;;;;;;;;15.30;99.90;;;;;;5052215;28;20533;-90
2023/06/30 02:49:00;;;;;;;3.90;1.80;;;15.30;99.90;;;;;;5051707;28;19911;-90
2023/06/30 02:51:26;;;;;;;;;;;15.30;99.90;;;;;;5051982;28;20029;-90
2023/06/30 02:53:51;;;;;;;3.22;1.70;;;15.30;99.90;;;;;;5054038;28;19958;-89
2023/06/30 02:56:17;;;;;;;9.20;2.90;;;15.30;99.90;;;;;;5052788;28;20039;-90
2023/06/30 02:58:43;;;;;;;4.32;1.48;;;15.30;99.90;;;;;;5051559;28;20155;-90
2023/06/30 03:01:08;;;;;;;4.32;2.53;;;15.30;99.90;;;;;;5052354;28;20469;-90
2023/06/30 03:03:34;;;;;;;;;;;15.30;99.90;;;;;;5053303;28;20029;-90
2023/06/30 03:05:59;;;;;;;3.20;1.88;;;15.30;99.90;;;;;;5054374;28;20077;-90
2023/06/30 03:08:25;;;;;;;4.93;1.90;;;15.30;99.90;;;;;;5055634;28;20037;-91
2023/06/30 03:10:51;;;;;;;5.72;1.60;;;15.30;99.90;;;;;;5055651;28;20025;-90
2023/06/30 03:13:17;;;;;;;3.75;1.55;;;15.40;99.90;;;;;;5056440;28;20064;-89
2023/06/30 03:15:43;;;;;;;4.70;1.52;;;15.40;99.90;;;;;;5055947;28;20031;-90
2023/06/30 03:18:09;;;;;;;5.25;1.70;;;15.40;99.90;;;;;;5056824;28;20568;-90
2023/06/30 03:20:34;;;;;;;;;;;15.50;99.90;;;;;;5056275;28;20025;-90
2023/06/30 03:23:00;;;;;;;3.90;1.48;;;15.50;99.90;;;;;;5055950;28;19923;-89
2023/06/30 03:25:25;;;;;;;;;;;15.50;99.90;;;;;;5056733;28;20489;-89
2023/06/30 03:27:51;;;;;;;4.00;2.35;;;15.50;99.90;;;;;;5057063;28;20027;-89
2023/06/30 03:30:17;;;;;;;3.70;1.95;;;15.50;99.90;;;;;;5068949;28;20039;-90
2023/06/30 03:32:42;;;;;;;3.38;1.63;;;15.60;99.90;;;;;;5078297;28;20074;-87
2023/06/30 03:35:08;;;;;;;;;;;15.60;99.90;;;;;;5071274;28;20025;-91
2023/06/30 03:37:33;;;;;;;3.42;1.60;;;15.60;99.90;;;;;;5057139;28;19908;-90
2023/06/30 03:40:00;;;;;;;4.28;1.75;;;15.70;99.90;;;;;;5055951;28;20029;-88
2023/06/30 03:42:26;;;;;;;4.57;2.40;;;15.70;99.90;;;;;;5054811;28;20025;-90
2023/06/30 03:44:52;;;;;;;3.22;1.77;;;15.80;99.90;;;;;;5055057;28;20078;-90
2023/06/30 03:47:17;;;;;;;12.25;2.75;;;15.90;99.90;;;;;;5054986;28;20041;-91
2023/06/30 03:49:43;;;;;;;3.83;1.73;;;16.00;99.90;;;;;;5055635;28;20013;-91
2023/06/30 03:52:09;;;;;;;8.40;1.90;;;16.00;99.90;;;;;;5053948;28;20032;-90
2023/06/30 03:54:35;;;;;;;3.55;2.10;;;16.10;99.90;;;;;;5054898;28;20111;-90
2023/06/30 03:57:00;;;;;;;3.63;1.83;;;16.20;99.90;;;;;;5054586;28;20123;-90
2023/06/30 03:59:26;;;;;;;4.50;1.80;;;16.30;99.90;;;;;;5054465;28;20538;-90
2023/06/30 04:01:52;;;;;;;4.55;1.88;;;16.40;99.90;;;;;;5054718;28;20020;-90
2023/06/30 04:04:18;;;;;;;3.03;1.60;;;16.50;99.90;;;;;;5067951;28;20013;-90
2023/06/30 04:06:44;;;;;;;2.75;1.60;;;16.70;99.90;;;;;;5068246;28;20523;-90
2023/06/30 04:09:10;;;;;;;2.83;1.55;;;17.00;99.90;;;;;;5055763;28;20029;-90
2023/06/30 04:11:35;;;;;;;3.05;1.98;;;17.50;99.90;;;;;;5055748;28;20027;-89
2023/06/30 04:14:01;;;;;;;2.13;1.60;;;18.00;99.90;;;;;;5054368;28;20059;-90
2023/06/30 04:16:28;;;;;;;3.60;1.70;;;18.20;99.90;;;;;;5053392;28;20405;-88
2023/06/30 04:18:53;;;;;;;3.75;1.45;;;18.40;99.90;;;;;;5054580;28;20025;-91
2023/06/30 04:21:19;;;;;;;2.20;1.40;;;18.40;99.90;;;;;;5053341;28;20119;-90
2023/06/30 04:23:45;;;;;;;3.58;1.95;;;18.50;99.90;;;;;;5052100;28;20190;-90
2023/06/30 04:26:10;;;;;;;2.13;0.93;;;18.50;99.90;;;;;;5053652;28;20060;-90
2023/06/30 04:28:36;;;;;;;2.28;1.55;;;18.60;99.90;;;;;;5053817;28;20024;-90
2023/06/30 04:31:04;;;;;;;6.60;1.90;;;18.70;99.90;;;;;;5053873;28;20028;-89
2023/06/30 04:33:32;;;;;;;3.83;1.25;;;18.70;99.90;;;;;;5052731;28;20029;-89
2023/06/30 04:35:58;;;;;;;8.52;2.38;;;18.90;99.90;;;;;;5052809;28;20040;-89
2023/06/30 04:38:24;;;;;;;10.50;2.78;;;19.10;99.90;;;;;;5053673;28;20025;-90
2023/06/30 04:40:50;;;;;;;16.95;3.25;;;19.20;99.90;;;;;;5054759;28;20068;-89
2023/06/30 04:43:15;;;;;;;5.55;2.55;;;19.30;99.90;;;;;;5053544;28;20021;-91
2023/06/30 04:45:42;;;;;;;6.10;2.00;;;19.40;99.90;;;;;;5053888;28;20021;-90
2023/06/30 04:48:08;;;;;;;6.18;1.77;;;19.40;99.90;;;;;;5054044;28;20057;-89
2023/06/30 04:50:34;;;;;;;4.15;1.55;;;19.60;99.90;;;;;;5054091;28;20523;-89
2023/06/30 04:53:00;;;;;;;4.38;1.58;;;19.70;99.90;;;;;;5054391;28;20431;-89
2023/06/30 04:55:26;;;;;;;2.78;1.48;;;19.80;99.90;;;;;;5053393;28;20017;-90
2023/06/30 04:57:56;;;;;;;2.90;1.60;;;19.90;99.90;;;;;;5053496;28;20473;-90
2023/06/30 05:00:22;;;;;;;3.85;1.20;;;20.00;99.90;;;;;;5053216;28;20025;-90
2023/06/30 05:02:49;;;;;;;5.28;1.90;;;20.20;99.90;;;;;;5053713;28;20021;-90
2023/06/30 05:05:20;;;;;;;2.53;1.30;;;20.30;99.90;;;;;;5052633;28;20049;-89
2023/06/30 05:07:46;;;;;;;4.80;1.75;;;20.50;99.90;;;;;;5053772;28;20128;-90
2023/06/30 05:10:12;;;;;;;4.80;1.40;;;20.60;99.90;;;;;;5052142;28;20063;-90
2023/06/30 05:12:38;;;;;;;3.67;1.48;;;20.70;99.90;;;;;;5052878;28;20036;-90
2023/06/30 05:15:04;;;;;;;3.78;1.23;;;20.90;99.90;;;;;;5054042;28;20017;-89
2023/06/30 05:17:29;;;;;;;3.38;1.52;;;21.00;99.90;;;;;;5052857;28;20021;-90
2023/06/30 05:19:55;;;;;;;6.43;2.13;;;21.20;99.90;;;;;;5052537;28;20031;-89
2023/06/30 05:22:21;;;;;;;2.88;1.63;;;21.40;99.90;;;;;;5052538;28;20097;-89
2023/06/30 05:24:47;;;;;;;5.65;1.88;;;21.50;99.90;;;;;;5052643;28;20028;-90
2023/06/30 05:27:14;;;;;;;3.25;1.75;;;21.90;99.90;;;;;;5051509;28;20037;-90
2023/06/30 05:29:39;;;;;;;3.58;1.45;;;22.10;99.90;;;;;;5052476;28;20055;-89
2023/06/30 05:32:06;;;;;;;2.55;1.40;;;22.30;99.90;;;;;;5052256;28;20049;-90
2023/06/30 05:34:31;;;;;;;2.65;1.50;;;22.40;99.90;;;;;;5052151;28;20029;-90
2023/06/30 05:36:57;;;;;;;2.13;1.10;;;22.50;99.90;;;;;;5052381;28;20122;-89
2023/06/30 05:39:23;;;;;;;2.33;1.42;;;22.60;99.90;;;;;;5053896;28;20049;-91
2023/06/30 05:41:49;;;;;;;4.00;1.25;;;22.70;99.90;;;;;;5052263;28;20464;-91
2023/06/30 05:44:14;;;;;;;3.03;1.08;;;22.80;99.90;;;;;;5052843;28;20020;-91
2023/06/30 05:46:40;;;;;;;5.10;1.42;;;23.00;99.90;;;;;;5052518;28;20036;-90
2023/06/30 05:49:06;;;;;;;5.95;1.40;;;23.30;99.90;;;;;;5050799;28;20029;-92
2023/06/30 05:51:35;;;;;;;3.05;1.27;;;23.60;99.60;;;;;;5051848;28;20063;-93
2023/06/30 05:54:03;;;;;;;2.95;1.38;;;23.90;96.60;;;;;;5051959;28;20033;-93
2023/06/30 05:56:29;;;;;;;3.38;1.40;;;24.10;94.20;;;;;;5052141;28;20028;-92
2023/06/30 05:58:55;;;;;;;9.27;1.30;;;24.60;91.70;;;;;;5052210;28;20029;-93
2023/06/30 06:01:21;;;;;;;5.30;1.00;;;25.40;84.00;;;;;;5052325;28;20017;-92
2023/06/30 06:03:48;;;;;;;5.22;1.40;;;26.70;76.00;;;;;;5051035;28;20057;-91
2023/06/30 06:06:14;;;;;;;4.57;1.42;;;28.40;70.00;;;;;;5051630;28;20044;-90
2023/06/30 06:08:44;;;;;;;2.97;1.27;;;30.00;60.40;;;;;;5060271;28;20021;-89
2023/06/30 06:11:10;;;;;;;7.13;0.98;;;31.20;54.70;;;;;;5051309;28;20029;-90
2023/06/30 06:13:37;;;;;;;3.30;1.02;;;32.40;51.00;;;;;;5058688;28;20033;-90
2023/06/30 06:16:04;;;;;;;3.00;1.23;;;33.30;47.40;;;;;;5072894;28;20045;-93
2023/06/30 06:18:30;;;;;;;3.00;1.30;;;34.10;44.90;;;;;;5055177;28;20044;-93
2023/06/30 06:20:56;;;;;;;3.83;1.17;;;34.70;43.10;;;;;;5052427;28;20017;-92
2023/06/30 06:23:22;;;;;;;4.68;1.77;;;35.10;42.40;;;;;;5052047;28;20040;-93
2023/06/30 06:25:49;;;;;;;6.22;1.17;;;35.50;40.70;;;;;;5053076;28;20021;-93
2023/06/30 06:28:14;;;;;;;4.78;1.63;;;35.60;40.00;;;;;;5053082;28;20396;-93
2023/06/30 06:30:40;;;;;;;3.10;1.27;;;35.80;40.30;;;;;;5051632;28;20036;-93
2023/06/30 06:33:06;;;;;;;1.80;1.08;;;36.30;39.20;;;;;;5053830;28;20057;-93
2023/06/30 06:35:33;;;;;;;8.40;1.67;;;36.50;38.80;;;;;;5055249;28;20025;-92
2023/06/30 06:38:02;;;;;;;2.40;1.52;;;36.70;36.90;;;;;;5052640;28;20021;-90
2023/06/30 06:40:30;;;;;;;6.80;1.38;;;36.70;36.60;;;;;;5058068;28;20033;-92
2023/06/30 06:42:56;;;;;;;14.60;1.48;;;36.60;36.50;;;;;;5057089;28;20024;-91
2023/06/30 06:45:22;;;;;;;2.55;1.20;;;36.60;36.70;;;;;;5055884;28;20032;-92
2023/06/30 06:48:20;;;;;;;6.55;1.60;;;36.60;36.10;;;;;;5056633;28;20032;-92
2023/06/30 06:51:06;;;;;;;3.55;2.20;;;36.70;35.40;;;;;;5056834;28;20025;-92
2023/06/30 06:53:33;;;;;;;4.78;2.03;;;36.70;35.80;;;;;;5072659;28;20063;-91
2023/06/30 06:56:00;;;;;;;3.00;1.70;;;36.60;36.90;;;;;;5062900;28;20021;-90
2023/06/30 06:58:31;;;;;;;4.20;1.92;;;36.60;37.20;;;;;;5058093;28;20556;-90
2023/06/30 07:00:57;;;;;;;2.58;1.30;;;36.50;37.20;;;;;;5055156;28;20071;-89
2023/06/30 07:03:23;;;;;;;3.10;1.38;;;36.60;37.30;;;;;;5056489;28;20025;-88
2023/06/30 07:05:49;;;;;;;4.47;1.80;;;36.70;37.50;;;;;;5055213;28;20045;-89
2023/06/30 07:08:19;;;;;;;7.72;1.55;;;36.70;38.10;;;;;;5055102;28;20036;-89
2023/06/30 07:10:46;;;;;;;12.90;1.67;;;36.60;38.20;;;;;;5055157;28;20397;-90
2023/06/30 07:13:14;;;;;;;15.60;2.25;;;36.20;37.80;;;;;;5055410;28;20028;-89
2023/06/30 07:15:40;;;;;;;7.25;1.85;;;36.30;38.10;;;;;;5056317;28;20025;-90
2023/06/30 07:18:05;;;;;;;6.82;1.27;;;36.40;37.50;;;;;;5055979;28;20021;-88
2023/06/30 07:20:31;;;;;;;7.35;1.52;;;36.50;37.50;;;;;;5055050;28;20087;-89
2023/06/30 07:22:57;;;;;;;4.63;1.42;;;36.20;37.40;;;;;;5056036;28;20112;-89
2023/06/30 07:25:24;;;;;;;6.28;1.67;;;36.00;37.80;;;;;;5054990;28;20044;-89
2023/06/30 07:27:54;;;;;;;5.97;1.20;;;36.20;37.80;;;;;;5054621;28;20041;-89
2023/06/30 07:30:27;;;;;;;3.10;1.42;;;36.40;37.40;;;;;;5056139;28;20021;-88
2023/06/30 07:32:53;;;;;;;3.90;1.27;;;36.20;37.60;;;;;;5054903;28;20033;-89
2023/06/30 07:35:20;;;;;;;5.25;0.98;;;36.10;37.30;;;;;;5054714;28;20028;-89
2023/06/30 07:37:47;;;;;;;2.53;1.10;;;36.20;36.20;;;;;;5054850;28;20029;-89
2023/06/30 07:40:14;;;;;;;5.43;1.40;;;35.80;36.30;;;;;;5054737;28;20052;-89
2023/06/30 07:42:40;;;;;;;4.30;0.90;;;36.20;36.10;;;;;;5053804;28;20052;-89
2023/06/30 07:45:11;;;;;;;3.45;1.30;;;36.20;36.20;;;;;;5056048;28;20151;-94
2023/06/30 07:47:39;;;;;;;2.78;1.10;;;36.30;37.00;;;;;;5054771;28;20037;-92
2023/06/30 07:50:09;;;;;;;3.88;0.98;;;36.30;36.60;;;;;;5053736;28;20405;-92
2023/06/30 07:52:40;;;;;;;3.85;1.10;;;36.20;37.10;;;;;;5056084;28;20424;-91
2023/06/30 07:55:06;;;;;;;2.90;1.10;;;36.20;36.10;;;;;;5056248;28;20053;-90
2023/06/30 07:57:32;;;;;;;6.30;0.95;;;36.10;35.70;;;;;;5054478;28;20029;-91
2023/06/30 07:59:57;;;;;;;6.47;1.75;;;36.20;35.60;;;;;;5055556;28;20029;-91
2023/06/30 08:02:23;;;;;;;3.08;1.23;;;36.10;36.50;;;;;;5056783;28;20489;-91
2023/06/30 08:04:50;;;;;;;2.28;1.05;;;36.00;36.40;;;;;;5062142;28;20045;-89
2023/06/30 08:07:15;;;;;;;4.07;1.10;;;36.20;35.70;;;;;;5054317;28;20033;-90
2023/06/30 08:09:41;;;;;;;4.72;0.98;;;36.00;35.70;;;;;;5055181;28;20508;-90
2023/06/30 08:12:07;;;;;;;5.10;1.10;;;35.90;37.00;;;;;;5055403;28;20033;-91
2023/06/30 08:14:33;;;;;;;3.03;1.10;;;36.10;36.30;;;;;;5055202;28;20072;-90
2023/06/30 08:16:58;;;;;;;2.40;1.40;;;36.50;34.80;;;;;;5054944;28;20021;-90
2023/06/30 08:19:24;;;;;;;2.55;1.10;;;36.40;35.90;;;;;;5053963;28;20029;-90
2023/06/30 08:21:50;;;;;;;2.17;0.88;;;36.30;36.30;;;;;;5053630;28;20021;-90
2023/06/30 08:24:15;;;;;;;2.90;0.93;;;36.20;36.30;;;;;;5072795;28;20018;-91
2023/06/30 08:26:41;;;;;;;4.00;1.50;;;36.10;36.30;;;;;;5061888;28;20041;-90
2023/06/30 08:29:07;;;;;;;4.63;1.10;;;35.80;36.40;;;;;;5054139;28;20063;-90
2023/06/30 08:31:33;;;;;;;2.47;1.30;;;35.80;37.70;;;;;;5055315;28;20067;-90
2023/06/30 08:33:59;;;;;;;5.50;1.00;;;35.80;36.30;;;;;;5053769;28;20506;-90
2023/06/30 08:36:25;;;;;;;3.75;1.15;;;35.70;35.40;;;;;;5055011;28;20037;-90
2023/06/30 08:38:50;;;;;;;3.72;1.60;;;36.10;35.70;;;;;;5052857;28;20112;-90
2023/06/30 08:41:16;;;;;;;3.15;1.20;;;35.80;35.00;;;;;;5052986;28;20029;-90
2023/06/30 08:43:44;;;;;;;2.65;1.02;;;35.10;36.30;;;;;;5053622;28;20039;-91
2023/06/30 08:46:12;;;;;;;4.13;1.20;;;35.10;36.50;;;;;;5053949;28;20086;-90
2023/06/30 08:48:39;;;;;;;2.30;1.00;;;35.70;36.70;;;;;;5053701;28;20028;-89
2023/06/30 08:51:05;;;;;;;2.67;0.90;;;35.50;35.30;;;;;;5053452;28;20032;-90
2023/06/30 08:53:31;;;;;;;1.63;1.13;;;35.20;36.10;;;;;;5053112;28;20033;-90
2023/06/30 08:55:59;;;;;;;4.57;1.13;;;34.50;36.90;;;;;;5053450;28;20037;-89
2023/06/30 08:58:27;;;;;;;2.38;0.80;;;34.60;38.20;;;;;;5052220;28;20064;-85
2023/06/30 09:00:54;;;;;;;3.83;1.13;;;34.80;37.10;;;;;;5052164;28;20538;-87
2023/06/30 09:03:20;;;;;;;2.50;1.08;;;34.10;36.50;;;;;;5052452;28;20021;-86
2023/06/30 09:05:47;;;;;;;3.45;1.15;;;33.30;38.40;;;;;;5051892;28;20064;-88
2023/06/30 09:08:21;;;;;;;3.53;1.10;;;32.60;39.30;;;;;;5054140;28;20017;-93
2023/06/30 09:10:48;;;;;;;7.63;1.55;;;31.80;40.50;;;;;;5053290;28;20047;-92
2023/06/30 09:13:16;;;;;;;2.67;1.05;;;31.40;41.40;;;;;;5053246;28;20107;-93
2023/06/30 09:15:43;;;;;;;4.68;1.13;;;31.80;41.90;;;;;;5052960;28;20512;-91
2023/06/30 09:18:09;;;;;;;2.08;0.80;;;32.40;40.00;;;;;;5052656;28;20021;-90
2023/06/30 09:20:37;;;;;;;3.20;0.93;;;32.60;39.20;;;;;;5054052;28;20082;-86
2023/06/30 09:23:04;;;;;;;2.53;1.25;;;32.20;39.30;;;;;;5053171;28;20190;-87
2023/06/30 09:25:32;;;;;;;2.42;0.82;;;31.40;40.40;;;;;;5052728;28;20028;-89
2023/06/30 09:27:58;;;;;;;4.30;1.20;;;31.40;41.00;;;;;;5052177;28;20033;-90
2023/06/30 09:30:33;;;;;;;3.35;1.35;;;31.30;38.50;;;;;;5051947;28;20035;-90
2023/06/30 09:32:59;;;;;;;3.22;1.00;;;31.10;40.80;;;;;;5051859;28;20025;-90
2023/06/30 09:35:24;;;;;;;4.70;1.10;;;31.30;41.70;;;;;;5052325;28;20047;-91
2023/06/30 09:37:53;;;;;;;3.75;1.00;;;31.50;39.40;;;;;;5051867;28;20040;-91
2023/06/30 09:40:24;;;;;;;6.78;1.33;;;31.50;39.80;;;;;;5052589;28;20523;-91
2023/06/30 09:42:53;;;;;;;1.92;1.13;;;31.80;41.60;;;;;;5052457;28;20112;-90
2023/06/30 09:45:20;;;;;;;2.70;0.93;;;32.10;40.70;;;;;;5052388;28;20024;-86
2023/06/30 09:47:53;;;;;;;3.00;1.00;;;32.80;40.40;;;;;;5052198;28;20057;-89
2023/06/30 09:50:30;;;;;;;3.88;1.30;;;33.50;39.10;;;;;;5053151;28;20027;-88
2023/06/30 09:52:55;;;;;;;7.80;1.38;;;34.00;36.70;;;;;;5051999;28;20446;-88
2023/06/30 09:55:21;;;;;;;2.63;1.02;;;34.10;37.20;;;;;;5051328;28;20079;-88
2023/06/30 09:57:47;;;;;;;2.85;1.15;;;34.00;37.80;;;;;;5052230;28;20401;-90
2023/06/30 10:00:14;;;;;;;2.58;0.93;;;34.10;38.60;;;;;;5051572;28;20035;-89
2023/06/30 10:02:40;;;;;;;2.35;0.98;;;34.30;35.90;;;;;;5054940;28;20541;-93
2023/06/30 10:05:09;;;;;;;3.22;0.90;;;34.10;36.30;;;;;;5057894;28;20091;-90
2023/06/30 10:07:36;;;;;;;6.00;1.00;;;34.00;37.40;;;;;;5054835;28;20061;-92
2023/06/30 10:10:02;;;;;;;4.90;1.13;;;33.40;38.40;;;;;;5052843;28;20066;-89
2023/06/30 10:12:33;;;;;;;2.97;1.05;;;32.90;38.60;;;;;;5051978;28;20039;-92
2023/06/30 10:15:00;;;;;;;1.98;0.90;;;32.60;39.60;;;;;;5065114;28;20009;-90
2023/06/30 10:17:27;;;;;;;2.42;1.20;;;32.30;39.10;;;;;;5072806;28;20021;-88
2023/06/30 10:19:53;;;;;;;5.93;1.25;;;32.10;39.80;;;;;;5067574;28;20025;-92
2023/06/30 10:22:19;;;;;;;8.02;1.17;;;31.90;39.60;;;;;;5059611;28;20067;-90
2023/06/30 10:24:47;;;;;;;2.92;1.13;;;31.80;41.90;;;;;;5056634;28;20490;-90
2023/06/30 10:27:18;;;;;;;1.90;0.82;;;31.70;42.30;;;;;;5053873;28;20040;-92
2023/06/30 10:29:45;;;;;;;2.92;0.93;;;31.60;41.50;;;;;;5053077;28;20104;-89
2023/06/30 10:32:11;;;;;;;8.82;1.30;;;31.50;42.90;;;;;;5054077;28;20021;-91
2023/06/30 10:34:38;;;;;;;2.55;0.93;;;31.30;42.20;;;;;;5074652;28;20040;-94
2023/06/30 10:37:04;;;;;;;2.85;1.33;;;31.20;41.70;;;;;;5063687;28;20029;-92
2023/06/30 10:39:30;;;;;;;4.22;1.10;;;31.20;41.70;;;;;;5052356;28;20031;-92
2023/06/30 10:41:59;;;;;;;2.65;1.20;;;31.10;41.40;;;;;;5052128;28;20025;-91
2023/06/30 10:44:38;;;;;;;8.70;1.48;;;31.20;40.30;;;;;;5052125;28;20033;-92
2023/06/30 10:47:05;;;;;;;3.42;1.45;;;31.30;41.60;;;;;;5051911;28;20044;-91
2023/06/30 10:49:53;;;;;;;4.38;1.75;;;31.20;43.20;;;;;;5053071;28;20416;-92
2023/06/30 10:52:29;;;;;;;6.57;2.10;;;31.20;43.10;;;;;;5052027;28;20481;-92
2023/06/30 10:54:55;;;;;;;6.60;1.35;;;31.20;43.80;;;;;;5052027;28;20029;-92
2023/06/30 10:57:24;;;;;;;3.28;0.95;;;31.10;42.90;;;;;;5051902;28;20025;-91
2023/06/30 11:00:11;;;;;;;4.93;2.38;;;31.10;42.60;;;;;;5051967;28;20033;-92
2023/06/30 11:02:49;;;;;;;4.53;1.95;;;30.90;43.60;;;;;;5051509;28;20181;-91
2023/06/30 11:05:22;;;;;;;6.97;1.80;;;30.80;43.10;;;;;;5051376;28;20156;-93
2023/06/30 11:08:21;;;;;;;3.38;1.10;;;30.70;42.90;;;;;;5051548;28;20118;-92
2023/06/30 11:10:47;;;;;;;7.18;1.80;;;30.70;43.60;;;;;;5052954;28;20603;-91
2023/06/30 11:13:13;;;;;;;5.25;1.10;;;30.80;43.80;;;;;;5051614;28;20074;-91
2023/06/30 11:15:42;;;;;;;3.42;1.00;;;31.10;43.20;;;;;;5054678;28;20060;-89
2023/06/30 11:18:12;;;;;;;7.68;1.25;;;31.20;42.90;;;;;;5051305;28;20032;-89
2023/06/30 11:20:38;;;;;;;6.38;0.95;;;31.10;42.50;;;;;;5052576;28;20029;-90
2023/06/30 11:23:17;;;;;;;4.95;1.08;;;31.00;42.40;;;;;;5052105;28;20060;-91
2023/06/30 11:25:42;;;;;;;3.95;1.10;;;31.10;43.80;;;;;;5051824;28;20064;-91
2023/06/30 11:28:11;;;;;;;4.22;1.00;;;31.10;43.50;;;;;;5054998;28;20646;-91
2023/06/30 11:30:40;;;;;;;3.17;1.02;;;31.00;42.90;;;;;;5057045;28;20112;-91
2023/06/30 11:33:07;;;;;;;7.60;1.35;;;31.00;42.30;;;;;;5054010;28;20032;-91
2023/06/30 11:35:36;;;;;;;2.95;1.23;;;30.80;41.90;;;;;;5054893;28;20033;-90
2023/06/30 11:38:02;;;;;;;3.78;1.15;;;30.60;42.40;;;;;;5054902;28;20029;-91
2023/06/30 11:40:28;;;;;;;5.43;1.25;;;30.50;43.90;;;;;;5054894;28;20032;-91
2023/06/30 11:42:54;;;;;;;2.50;1.00;;;30.50;43.00;;;;;;5055156;28;20021;-92
2023/06/30 11:45:21;;;;;;;2.25;1.05;;;30.50;41.90;;;;;;5054938;28;20501;-91
2023/06/30 11:47:54;;;;;;;2.17;0.90;;;30.50;42.00;;;;;;5057845;28;20037;-91
2023/06/30 11:50:20;;;;;;;5.43;1.30;;;30.40;42.90;;;;;;5055353;28;20036;-91
2023/06/30 11:52:49;;;;;;;4.25;1.05;;;30.30;44.40;;;;;;5056111;28;20029;-90
2023/06/30 11:55:16;;;;;;;2.20;0.90;;;30.30;44.50;;;;;;5055526;28;20017;-91
2023/06/30 11:57:46;;;;;;;4.45;1.05;;;30.30;43.60;;;;;;5055732;28;20029;-92
2023/06/30 12:00:16;;;;;;;5.75;1.30;;;30.30;43.90;;;;;;5054492;28;20039;-92
2023/06/30 12:02:46;;;;;;;4.03;1.65;;;30.20;44.20;;;;;;5058131;28;20108;-91
2023/06/30 12:05:17;;;;;;;3.83;0.80;;;30.30;44.50;;;;;;5057665;28;20052;-92
2023/06/30 12:07:45;;;;;;;5.97;2.63;;;30.50;45.00;;;;;;5054951;28;20032;-91
2023/06/30 12:10:12;;;;;;;3.28;1.73;;;30.70;43.70;;;;;;5054492;28;20025;-91
2023/06/30 12:12:38;;;;;;;3.08;1.00;;;30.90;42.70;;;;;;5053809;28;20036;-91
2023/06/30 12:15:08;;;;;;;5.90;1.10;;;31.10;42.80;;;;;;5053537;28;20025;-91
2023/06/30 12:17:36;;;;;;;9.48;1.20;;;31.10;43.20;;;;;;5054714;28;20527;-90
2023/06/30 12:20:04;;;;;;;4.80;1.10;;;31.10;43.00;;;;;;5054346;28;20017;-90
2023/06/30 12:22:30;;;;;;;4.47;1.30;;;31.10;42.30;;;;;;5054439;28;20029;-92
2023/06/30 12:24:59;;;;;;;6.30;1.33;;;31.00;42.70;;;;;;5054299;28;20029;-93
2023/06/30 12:27:27;;;;;;;3.30;1.15;;;31.00;42.00;;;;;;5054058;28;20048;-92
2023/06/30 12:29:54;;;;;;;5.05;1.08;;;31.00;42.30;;;;;;5053851;28;20017;-91
2023/06/30 12:32:20;;;;;;;5.75;1.10;;;31.00;42.90;;;;;;5054177;28;20493;-93
2023/06/30 12:34:46;;;;;;;2.95;1.13;;;31.00;43.30;;;;;;5055069;28;20055;-91
2023/06/30 12:37:12;;;;;;;2.72;1.13;;;31.00;42.40;;;;;;5053360;28;20459;-93
2023/06/30 12:39:38;;;;;;;1.90;0.80;;;31.00;42.50;;;;;;5054153;28;20555;-93
2023/06/30 12:42:04;;;;;;;3.40;0.90;;;31.10;42.40;;;;;;5054366;28;20025;-93
2023/06/30 12:44:30;;;;;;;3.00;1.98;;;30.90;41.40;;;;;;5077241;28;20023;-92
2023/06/30 12:47:06;;;;;;;2.55;0.77;;;31.00;42.70;;;;;;5060947;28;20037;-92
2023/06/30 12:49:33;;;;;;;3.63;1.00;;;31.00;42.60;;;;;;5054388;28;20492;-93
2023/06/30 12:51:59;;;;;;;5.18;1.20;;;30.90;42.50;;;;;;5054019;28;20481;-92